sensor_id;sensor_type;location;lat;lon;timestamp;P1;durP1;ratioP1;P2;durP2;ratioP2
19998;SDS011;10160;50.926;4.374;2024-01-30T00:01:43;10.57;;;4.63;;
19998;SDS011;10160;50.926;4.374;2024-01-30T00:04:08;10.67;;;5.37;;
19998;SDS011;10160;50.926;4.374;2024-01-30T00:06:34;10.07;;;4.70;;
19998;SDS011;10160;50.926;4.374;2024-01-30T00:09:00;12.93;;;5.47;;
19998;SDS011;10160;50.926;4.374;2024-01-30T00:11:25;9.77;;;4.87;;
19998;SDS011;10160;50.926;4.374;2024-01-30T00:13:52;10.00;;;5.23;;
19998;SDS011;10160;50.926;4.374;2024-01-30T00:16:21;9.20;;;4.80;;
19998;SDS011;10160;50.926;4.374;2024-01-30T00:18:56;9.50;;;4.63;;
19998;SDS011;10160;50.926;4.374;2024-01-30T00:21:22;11.13;;;4.53;;
19998;SDS011;10160;50.926;4.374;2024-01-30T00:23:49;10.17;;;5.00;;
19998;SDS011;10160;50.926;4.374;2024-01-30T00:26:15;9.40;;;5.13;;
19998;SDS011;10160;50.926;4.374;2024-01-30T00:28:41;12.23;;;4.43;;
19998;SDS011;10160;50.926;4.374;2024-01-30T00:31:07;10.23;;;5.10;;
19998;SDS011;10160;50.926;4.374;2024-01-30T00:33:37;10.07;;;4.80;;
19998;SDS011;10160;50.926;4.374;2024-01-30T00:36:06;10.10;;;4.90;;
19998;SDS011;10160;50.926;4.374;2024-01-30T00:38:33;9.07;;;4.70;;
19998;SDS011;10160;50.926;4.374;2024-01-30T00:40:59;13.83;;;5.20;;
19998;SDS011;10160;50.926;4.374;2024-01-30T00:43:24;10.50;;;4.87;;
19998;SDS011;10160;50.926;4.374;2024-01-30T00:45:51;10.57;;;4.40;;
19998;SDS011;10160;50.926;4.374;2024-01-30T00:48:19;10.03;;;4.77;;
19998;SDS011;10160;50.926;4.374;2024-01-30T00:50:48;8.63;;;3.80;;
19998;SDS011;10160;50.926;4.374;2024-01-30T00:53:14;10.97;;;4.73;;
19998;SDS011;10160;50.926;4.374;2024-01-30T00:55:40;11.43;;;4.93;;
19998;SDS011;10160;50.926;4.374;2024-01-30T00:58:06;9.50;;;4.90;;
19998;SDS011;10160;50.926;4.374;2024-01-30T01:00:32;9.43;;;4.13;;
19998;SDS011;10160;50.926;4.374;2024-01-30T01:03:10;12.07;;;5.10;;
19998;SDS011;10160;50.926;4.374;2024-01-30T01:05:39;9.07;;;4.80;;
19998;SDS011;10160;50.926;4.374;2024-01-30T01:08:05;11.73;;;4.83;;
19998;SDS011;10160;50.926;4.374;2024-01-30T01:10:30;10.77;;;4.60;;
19998;SDS011;10160;50.926;4.374;2024-01-30T01:12:59;7.90;;;4.17;;
19998;SDS011;10160;50.926;4.374;2024-01-30T01:15:25;10.80;;;4.93;;
19998;SDS011;10160;50.926;4.374;2024-01-30T01:17:51;8.53;;;4.50;;
19998;SDS011;10160;50.926;4.374;2024-01-30T01:20:16;9.47;;;4.27;;
19998;SDS011;10160;50.926;4.374;2024-01-30T01:22:42;11.87;;;5.23;;
19998;SDS011;10160;50.926;4.374;2024-01-30T01:25:08;9.97;;;5.03;;
19998;SDS011;10160;50.926;4.374;2024-01-30T01:27:35;13.07;;;4.43;;
19998;SDS011;10160;50.926;4.374;2024-01-30T01:30:06;10.20;;;4.10;;
19998;SDS011;10160;50.926;4.374;2024-01-30T01:32:35;9.43;;;4.43;;
19998;SDS011;10160;50.926;4.374;2024-01-30T01:35:01;12.77;;;5.23;;
19998;SDS011;10160;50.926;4.374;2024-01-30T01:37:29;9.33;;;4.57;;
19998;SDS011;10160;50.926;4.374;2024-01-30T01:39:54;9.83;;;4.70;;
19998;SDS011;10160;50.926;4.374;2024-01-30T01:42:23;9.53;;;4.67;;
19998;SDS011;10160;50.926;4.374;2024-01-30T01:44:49;8.87;;;4.50;;
19998;SDS011;10160;50.926;4.374;2024-01-30T01:47:14;8.90;;;4.50;;
19998;SDS011;10160;50.926;4.374;2024-01-30T01:49:40;9.90;;;4.80;;
19998;SDS011;10160;50.926;4.374;2024-01-30T01:52:06;9.37;;;4.83;;
19998;SDS011;10160;50.926;4.374;2024-01-30T01:54:32;11.63;;;4.40;;
19998;SDS011;10160;50.926;4.374;2024-01-30T01:56:58;8.23;;;4.30;;
19998;SDS011;10160;50.926;4.374;2024-01-30T01:59:25;14.20;;;4.57;;
19998;SDS011;10160;50.926;4.374;2024-01-30T02:01:54;11.17;;;5.23;;
19998;SDS011;10160;50.926;4.374;2024-01-30T02:04:21;10.73;;;4.90;;
19998;SDS011;10160;50.926;4.374;2024-01-30T02:06:46;11.13;;;5.43;;
19998;SDS011;10160;50.926;4.374;2024-01-30T02:09:12;9.00;;;4.37;;
19998;SDS011;10160;50.926;4.374;2024-01-30T02:11:38;8.40;;;4.63;;
19998;SDS011;10160;50.926;4.374;2024-01-30T02:14:04;14.90;;;5.03;;
19998;SDS011;10160;50.926;4.374;2024-01-30T02:16:31;10.83;;;3.87;;
19998;SDS011;10160;50.926;4.374;2024-01-30T02:18:56;12.50;;;4.73;;
19998;SDS011;10160;50.926;4.374;2024-01-30T02:21:22;8.93;;;4.53;;
19998;SDS011;10160;50.926;4.374;2024-01-30T02:23:48;11.33;;;4.83;;
19998;SDS011;10160;50.926;4.374;2024-01-30T02:26:14;10.73;;;4.50;;
19998;SDS011;10160;50.926;4.374;2024-01-30T02:28:43;13.80;;;5.63;;
19998;SDS011;10160;50.926;4.374;2024-01-30T02:31:11;10.67;;;4.90;;
19998;SDS011;10160;50.926;4.374;2024-01-30T02:33:37;8.97;;;4.20;;
19998;SDS011;10160;50.926;4.374;2024-01-30T02:36:03;12.63;;;4.47;;
19998;SDS011;10160;50.926;4.374;2024-01-30T02:38:29;9.47;;;4.27;;
19998;SDS011;10160;50.926;4.374;2024-01-30T02:40:54;10.43;;;4.83;;
19998;SDS011;10160;50.926;4.374;2024-01-30T02:43:21;10.10;;;4.33;;
19998;SDS011;10160;50.926;4.374;2024-01-30T02:45:47;8.60;;;4.70;;
19998;SDS011;10160;50.926;4.374;2024-01-30T02:48:13;9.93;;;5.00;;
19998;SDS011;10160;50.926;4.374;2024-01-30T02:50:38;10.13;;;4.50;;
19998;SDS011;10160;50.926;4.374;2024-01-30T02:53:07;11.70;;;4.53;;
19998;SDS011;10160;50.926;4.374;2024-01-30T02:55:35;8.83;;;4.87;;
19998;SDS011;10160;50.926;4.374;2024-01-30T02:58:00;10.00;;;4.27;;
19998;SDS011;10160;50.926;4.374;2024-01-30T03:00:32;12.33;;;4.13;;
19998;SDS011;10160;50.926;4.374;2024-01-30T03:02:57;9.37;;;4.10;;
19998;SDS011;10160;50.926;4.374;2024-01-30T03:05:23;12.63;;;4.93;;
19998;SDS011;10160;50.926;4.374;2024-01-30T03:07:53;11.43;;;4.00;;
19998;SDS011;10160;50.926;4.374;2024-01-30T03:10:18;10.23;;;4.07;;
19998;SDS011;10160;50.926;4.374;2024-01-30T03:12:47;14.23;;;3.73;;
19998;SDS011;10160;50.926;4.374;2024-01-30T03:15:18;9.73;;;4.50;;
19998;SDS011;10160;50.926;4.374;2024-01-30T03:17:55;14.07;;;5.30;;
19998;SDS011;10160;50.926;4.374;2024-01-30T03:20:21;11.70;;;4.87;;
19998;SDS011;10160;50.926;4.374;2024-01-30T03:22:59;13.10;;;5.43;;
19998;SDS011;10160;50.926;4.374;2024-01-30T03:25:31;10.43;;;5.03;;
19998;SDS011;10160;50.926;4.374;2024-01-30T03:27:57;11.10;;;4.50;;
19998;SDS011;10160;50.926;4.374;2024-01-30T03:30:22;10.13;;;4.80;;
19998;SDS011;10160;50.926;4.374;2024-01-30T03:32:51;13.50;;;4.77;;
19998;SDS011;10160;50.926;4.374;2024-01-30T03:35:20;10.57;;;4.90;;
19998;SDS011;10160;50.926;4.374;2024-01-30T03:37:50;10.30;;;4.83;;
19998;SDS011;10160;50.926;4.374;2024-01-30T03:40:16;9.43;;;4.90;;
19998;SDS011;10160;50.926;4.374;2024-01-30T03:42:42;10.70;;;4.63;;
19998;SDS011;10160;50.926;4.374;2024-01-30T03:45:08;9.17;;;4.43;;
19998;SDS011;10160;50.926;4.374;2024-01-30T03:47:34;9.60;;;5.20;;
19998;SDS011;10160;50.926;4.374;2024-01-30T03:50:02;12.93;;;5.00;;
19998;SDS011;10160;50.926;4.374;2024-01-30T03:52:30;10.10;;;4.93;;
19998;SDS011;10160;50.926;4.374;2024-01-30T03:54:55;11.07;;;4.80;;
19998;SDS011;10160;50.926;4.374;2024-01-30T03:57:21;11.80;;;5.47;;
19998;SDS011;10160;50.926;4.374;2024-01-30T03:59:47;10.17;;;4.90;;
19998;SDS011;10160;50.926;4.374;2024-01-30T04:02:13;10.37;;;4.27;;
19998;SDS011;10160;50.926;4.374;2024-01-30T04:04:38;10.87;;;5.07;;
19998;SDS011;10160;50.926;4.374;2024-01-30T04:07:04;9.77;;;4.10;;
19998;SDS011;10160;50.926;4.374;2024-01-30T04:09:32;10.73;;;4.13;;
19998;SDS011;10160;50.926;4.374;2024-01-30T04:11:58;9.73;;;4.73;;
19998;SDS011;10160;50.926;4.374;2024-01-30T04:14:24;10.00;;;4.77;;
19998;SDS011;10160;50.926;4.374;2024-01-30T04:16:50;10.20;;;4.77;;
19998;SDS011;10160;50.926;4.374;2024-01-30T04:19:16;11.43;;;4.80;;
19998;SDS011;10160;50.926;4.374;2024-01-30T04:21:41;13.67;;;5.23;;
19998;SDS011;10160;50.926;4.374;2024-01-30T04:24:07;10.83;;;5.00;;
19998;SDS011;10160;50.926;4.374;2024-01-30T04:26:33;10.80;;;4.10;;
19998;SDS011;10160;50.926;4.374;2024-01-30T04:28:58;9.60;;;4.73;;
19998;SDS011;10160;50.926;4.374;2024-01-30T04:31:24;12.73;;;5.40;;
19998;SDS011;10160;50.926;4.374;2024-01-30T04:33:50;12.60;;;5.10;;
19998;SDS011;10160;50.926;4.374;2024-01-30T04:36:15;10.13;;;4.43;;
19998;SDS011;10160;50.926;4.374;2024-01-30T04:38:41;13.47;;;5.23;;
19998;SDS011;10160;50.926;4.374;2024-01-30T04:41:07;13.00;;;4.90;;
19998;SDS011;10160;50.926;4.374;2024-01-30T04:43:32;10.83;;;4.40;;
19998;SDS011;10160;50.926;4.374;2024-01-30T04:45:58;10.23;;;5.33;;
19998;SDS011;10160;50.926;4.374;2024-01-30T04:48:24;10.27;;;5.00;;
19998;SDS011;10160;50.926;4.374;2024-01-30T04:50:50;12.60;;;5.03;;
19998;SDS011;10160;50.926;4.374;2024-01-30T04:53:15;12.50;;;5.37;;
19998;SDS011;10160;50.926;4.374;2024-01-30T04:55:41;9.27;;;4.90;;
19998;SDS011;10160;50.926;4.374;2024-01-30T04:58:06;10.60;;;5.20;;
19998;SDS011;10160;50.926;4.374;2024-01-30T05:00:32;11.60;;;4.93;;
19998;SDS011;10160;50.926;4.374;2024-01-30T05:02:58;7.80;;;4.27;;
19998;SDS011;10160;50.926;4.374;2024-01-30T05:05:24;12.67;;;4.97;;
19998;SDS011;10160;50.926;4.374;2024-01-30T05:07:52;9.40;;;4.30;;
19998;SDS011;10160;50.926;4.374;2024-01-30T05:10:24;12.57;;;4.63;;
19998;SDS011;10160;50.926;4.374;2024-01-30T05:12:49;9.47;;;5.00;;
19998;SDS011;10160;50.926;4.374;2024-01-30T05:15:15;14.33;;;4.70;;
19998;SDS011;10160;50.926;4.374;2024-01-30T05:17:41;10.83;;;4.63;;
19998;SDS011;10160;50.926;4.374;2024-01-30T05:20:06;11.00;;;5.13;;
19998;SDS011;10160;50.926;4.374;2024-01-30T05:22:33;13.23;;;5.47;;
19998;SDS011;10160;50.926;4.374;2024-01-30T05:24:59;11.40;;;4.90;;
19998;SDS011;10160;50.926;4.374;2024-01-30T05:27:24;13.37;;;5.43;;
19998;SDS011;10160;50.926;4.374;2024-01-30T05:29:53;15.23;;;5.43;;
19998;SDS011;10160;50.926;4.374;2024-01-30T05:32:19;11.60;;;4.77;;
19998;SDS011;10160;50.926;4.374;2024-01-30T05:34:44;11.70;;;5.13;;
19998;SDS011;10160;50.926;4.374;2024-01-30T05:37:10;11.67;;;5.40;;
19998;SDS011;10160;50.926;4.374;2024-01-30T05:39:41;11.80;;;5.60;;
19998;SDS011;10160;50.926;4.374;2024-01-30T05:42:07;11.60;;;5.00;;
19998;SDS011;10160;50.926;4.374;2024-01-30T05:44:33;10.93;;;5.23;;
19998;SDS011;10160;50.926;4.374;2024-01-30T05:46:58;12.07;;;5.57;;
19998;SDS011;10160;50.926;4.374;2024-01-30T05:49:24;11.43;;;5.30;;
19998;SDS011;10160;50.926;4.374;2024-01-30T05:51:50;10.77;;;5.30;;
19998;SDS011;10160;50.926;4.374;2024-01-30T05:54:15;11.67;;;5.13;;
19998;SDS011;10160;50.926;4.374;2024-01-30T05:56:41;12.70;;;6.17;;
19998;SDS011;10160;50.926;4.374;2024-01-30T05:59:07;11.60;;;5.40;;
19998;SDS011;10160;50.926;4.374;2024-01-30T06:01:32;16.10;;;5.70;;
19998;SDS011;10160;50.926;4.374;2024-01-30T06:03:59;10.27;;;5.70;;
19998;SDS011;10160;50.926;4.374;2024-01-30T06:06:26;15.83;;;5.93;;
19998;SDS011;10160;50.926;4.374;2024-01-30T06:08:52;10.23;;;5.17;;
19998;SDS011;10160;50.926;4.374;2024-01-30T06:11:20;9.90;;;5.10;;
19998;SDS011;10160;50.926;4.374;2024-01-30T06:13:46;12.57;;;5.77;;
19998;SDS011;10160;50.926;4.374;2024-01-30T06:16:12;11.40;;;5.20;;
19998;SDS011;10160;50.926;4.374;2024-01-30T06:18:38;11.70;;;5.67;;
19998;SDS011;10160;50.926;4.374;2024-01-30T06:21:04;12.63;;;5.50;;
19998;SDS011;10160;50.926;4.374;2024-01-30T06:23:30;11.27;;;5.27;;
19998;SDS011;10160;50.926;4.374;2024-01-30T06:25:56;14.93;;;5.80;;
19998;SDS011;10160;50.926;4.374;2024-01-30T06:28:21;10.67;;;5.70;;
19998;SDS011;10160;50.926;4.374;2024-01-30T06:30:47;9.47;;;5.30;;
19998;SDS011;10160;50.926;4.374;2024-01-30T06:33:13;11.00;;;5.30;;
19998;SDS011;10160;50.926;4.374;2024-01-30T06:35:38;10.17;;;5.23;;
19998;SDS011;10160;50.926;4.374;2024-01-30T06:38:05;10.23;;;5.67;;
19998;SDS011;10160;50.926;4.374;2024-01-30T06:40:31;13.10;;;5.30;;
19998;SDS011;10160;50.926;4.374;2024-01-30T06:42:57;15.87;;;5.70;;
19998;SDS011;10160;50.926;4.374;2024-01-30T06:45:22;9.77;;;4.90;;
19998;SDS011;10160;50.926;4.374;2024-01-30T06:47:48;13.17;;;5.03;;
19998;SDS011;10160;50.926;4.374;2024-01-30T06:50:14;9.77;;;5.20;;
19998;SDS011;10160;50.926;4.374;2024-01-30T06:52:39;11.03;;;5.33;;
19998;SDS011;10160;50.926;4.374;2024-01-30T06:55:05;14.27;;;5.43;;
19998;SDS011;10160;50.926;4.374;2024-01-30T06:57:31;14.93;;;5.50;;
19998;SDS011;10160;50.926;4.374;2024-01-30T06:59:57;11.43;;;5.23;;
19998;SDS011;10160;50.926;4.374;2024-01-30T07:02:23;16.50;;;5.93;;
19998;SDS011;10160;50.926;4.374;2024-01-30T07:04:48;12.30;;;6.03;;
19998;SDS011;10160;50.926;4.374;2024-01-30T07:07:14;11.37;;;5.43;;
19998;SDS011;10160;50.926;4.374;2024-01-30T07:09:40;12.17;;;5.40;;
19998;SDS011;10160;50.926;4.374;2024-01-30T07:12:06;11.23;;;5.40;;
19998;SDS011;10160;50.926;4.374;2024-01-30T07:14:32;10.10;;;4.87;;
19998;SDS011;10160;50.926;4.374;2024-01-30T07:16:58;17.57;;;6.20;;
19998;SDS011;10160;50.926;4.374;2024-01-30T07:19:24;9.97;;;4.83;;
19998;SDS011;10160;50.926;4.374;2024-01-30T07:21:50;13.87;;;5.43;;
19998;SDS011;10160;50.926;4.374;2024-01-30T07:24:18;12.40;;;5.23;;
19998;SDS011;10160;50.926;4.374;2024-01-30T07:26:44;8.77;;;4.80;;
19998;SDS011;10160;50.926;4.374;2024-01-30T07:29:10;10.97;;;4.03;;
19998;SDS011;10160;50.926;4.374;2024-01-30T07:31:35;11.03;;;5.40;;
19998;SDS011;10160;50.926;4.374;2024-01-30T07:34:01;14.07;;;5.77;;
19998;SDS011;10160;50.926;4.374;2024-01-30T07:36:27;11.47;;;5.23;;
19998;SDS011;10160;50.926;4.374;2024-01-30T07:38:53;15.53;;;5.40;;
19998;SDS011;10160;50.926;4.374;2024-01-30T07:41:22;13.93;;;5.53;;
19998;SDS011;10160;50.926;4.374;2024-01-30T07:43:50;11.87;;;5.27;;
19998;SDS011;10160;50.926;4.374;2024-01-30T07:46:16;11.87;;;6.07;;
19998;SDS011;10160;50.926;4.374;2024-01-30T07:48:42;14.17;;;6.37;;
19998;SDS011;10160;50.926;4.374;2024-01-30T07:51:07;14.97;;;6.30;;
19998;SDS011;10160;50.926;4.374;2024-01-30T07:53:33;15.43;;;7.07;;
19998;SDS011;10160;50.926;4.374;2024-01-30T07:55:58;14.17;;;6.10;;
19998;SDS011;10160;50.926;4.374;2024-01-30T07:58:24;14.83;;;6.43;;
19998;SDS011;10160;50.926;4.374;2024-01-30T08:00:52;16.07;;;6.00;;
19998;SDS011;10160;50.926;4.374;2024-01-30T08:03:18;12.93;;;5.67;;
19998;SDS011;10160;50.926;4.374;2024-01-30T08:05:44;10.03;;;4.97;;
19998;SDS011;10160;50.926;4.374;2024-01-30T08:08:12;17.33;;;6.77;;
19998;SDS011;10160;50.926;4.374;2024-01-30T08:10:38;14.17;;;6.17;;
19998;SDS011;10160;50.926;4.374;2024-01-30T08:13:03;14.93;;;6.10;;
19998;SDS011;10160;50.926;4.374;2024-01-30T08:15:29;14.27;;;6.50;;
19998;SDS011;10160;50.926;4.374;2024-01-30T08:17:57;16.33;;;6.67;;
19998;SDS011;10160;50.926;4.374;2024-01-30T08:20:24;14.50;;;6.10;;
19998;SDS011;10160;50.926;4.374;2024-01-30T08:22:50;17.87;;;5.37;;
19998;SDS011;10160;50.926;4.374;2024-01-30T08:25:16;17.53;;;6.43;;
19998;SDS011;10160;50.926;4.374;2024-01-30T08:27:42;15.83;;;6.63;;
19998;SDS011;10160;50.926;4.374;2024-01-30T08:30:11;17.17;;;6.60;;
19998;SDS011;10160;50.926;4.374;2024-01-30T08:32:37;17.00;;;5.47;;
19998;SDS011;10160;50.926;4.374;2024-01-30T08:35:02;12.53;;;6.13;;
19998;SDS011;10160;50.926;4.374;2024-01-30T08:37:29;14.17;;;5.80;;
19998;SDS011;10160;50.926;4.374;2024-01-30T08:39:55;19.90;;;6.43;;
19998;SDS011;10160;50.926;4.374;2024-01-30T08:42:20;15.10;;;6.47;;
19998;SDS011;10160;50.926;4.374;2024-01-30T08:44:49;16.33;;;6.67;;
19998;SDS011;10160;50.926;4.374;2024-01-30T08:47:16;19.27;;;6.57;;
19998;SDS011;10160;50.926;4.374;2024-01-30T08:49:43;20.53;;;7.30;;
19998;SDS011;10160;50.926;4.374;2024-01-30T08:52:10;13.47;;;5.90;;
19998;SDS011;10160;50.926;4.374;2024-01-30T08:54:36;17.13;;;7.00;;
19998;SDS011;10160;50.926;4.374;2024-01-30T08:57:05;19.27;;;6.90;;
19998;SDS011;10160;50.926;4.374;2024-01-30T08:59:30;22.43;;;7.30;;
19998;SDS011;10160;50.926;4.374;2024-01-30T09:01:56;12.33;;;6.53;;
19998;SDS011;10160;50.926;4.374;2024-01-30T09:04:23;19.53;;;7.07;;
19998;SDS011;10160;50.926;4.374;2024-01-30T09:06:49;16.17;;;6.63;;
19998;SDS011;10160;50.926;4.374;2024-01-30T09:09:15;17.37;;;6.87;;
19998;SDS011;10160;50.926;4.374;2024-01-30T09:11:41;19.97;;;6.97;;
19998;SDS011;10160;50.926;4.374;2024-01-30T09:14:07;19.43;;;7.07;;
19998;SDS011;10160;50.926;4.374;2024-01-30T09:16:32;15.80;;;6.87;;
19998;SDS011;10160;50.926;4.374;2024-01-30T09:18:59;16.80;;;6.90;;
19998;SDS011;10160;50.926;4.374;2024-01-30T09:21:27;15.50;;;7.27;;
19998;SDS011;10160;50.926;4.374;2024-01-30T09:24:01;13.47;;;6.77;;
19998;SDS011;10160;50.926;4.374;2024-01-30T09:26:30;9.23;;;4.90;;
19998;SDS011;10160;50.926;4.374;2024-01-30T09:28:56;14.80;;;7.20;;
19998;SDS011;10160;50.926;4.374;2024-01-30T09:31:21;15.47;;;6.13;;
19998;SDS011;10160;50.926;4.374;2024-01-30T09:33:47;18.00;;;6.87;;
19998;SDS011;10160;50.926;4.374;2024-01-30T09:36:21;15.40;;;6.40;;
19998;SDS011;10160;50.926;4.374;2024-01-30T09:38:53;15.90;;;6.50;;
19998;SDS011;10160;50.926;4.374;2024-01-30T09:41:19;11.63;;;4.83;;
19998;SDS011;10160;50.926;4.374;2024-01-30T09:43:52;15.40;;;7.30;;
19998;SDS011;10160;50.926;4.374;2024-01-30T09:46:22;16.83;;;5.50;;
19998;SDS011;10160;50.926;4.374;2024-01-30T09:48:53;17.77;;;7.00;;
19998;SDS011;10160;50.926;4.374;2024-01-30T09:51:23;13.37;;;6.80;;
19998;SDS011;10160;50.926;4.374;2024-01-30T09:53:50;13.33;;;6.17;;
19998;SDS011;10160;50.926;4.374;2024-01-30T09:56:17;11.77;;;5.67;;
19998;SDS011;10160;50.926;4.374;2024-01-30T09:58:44;16.97;;;7.70;;
19998;SDS011;10160;50.926;4.374;2024-01-30T10:01:10;12.97;;;7.60;;
19998;SDS011;10160;50.926;4.374;2024-01-30T10:03:35;14.87;;;7.90;;
19998;SDS011;10160;50.926;4.374;2024-01-30T10:06:01;14.20;;;5.70;;
19998;SDS011;10160;50.926;4.374;2024-01-30T10:08:27;18.17;;;8.53;;
19998;SDS011;10160;50.926;4.374;2024-01-30T10:10:54;18.57;;;7.63;;
19998;SDS011;10160;50.926;4.374;2024-01-30T10:13:26;15.60;;;6.57;;
19998;SDS011;10160;50.926;4.374;2024-01-30T10:15:52;18.97;;;7.83;;
19998;SDS011;10160;50.926;4.374;2024-01-30T10:18:18;18.83;;;7.47;;
19998;SDS011;10160;50.926;4.374;2024-01-30T10:20:44;19.30;;;7.97;;
19998;SDS011;10160;50.926;4.374;2024-01-30T10:23:18;17.90;;;8.80;;
19998;SDS011;10160;50.926;4.374;2024-01-30T10:25:45;13.80;;;7.37;;
19998;SDS011;10160;50.926;4.374;2024-01-30T10:28:11;18.13;;;7.47;;
19998;SDS011;10160;50.926;4.374;2024-01-30T10:30:36;22.20;;;8.63;;
19998;SDS011;10160;50.926;4.374;2024-01-30T10:33:02;19.37;;;8.50;;
19998;SDS011;10160;50.926;4.374;2024-01-30T10:35:31;21.50;;;8.70;;
19998;SDS011;10160;50.926;4.374;2024-01-30T10:37:59;15.97;;;8.73;;
19998;SDS011;10160;50.926;4.374;2024-01-30T10:40:28;19.50;;;8.33;;
19998;SDS011;10160;50.926;4.374;2024-01-30T10:42:54;18.90;;;9.03;;
19998;SDS011;10160;50.926;4.374;2024-01-30T10:45:27;19.17;;;9.13;;
19998;SDS011;10160;50.926;4.374;2024-01-30T10:47:54;20.67;;;9.00;;
19998;SDS011;10160;50.926;4.374;2024-01-30T10:50:23;25.27;;;9.57;;
19998;SDS011;10160;50.926;4.374;2024-01-30T10:52:53;24.13;;;9.17;;
19998;SDS011;10160;50.926;4.374;2024-01-30T10:55:26;23.63;;;8.87;;
19998;SDS011;10160;50.926;4.374;2024-01-30T10:57:53;18.93;;;8.57;;
19998;SDS011;10160;50.926;4.374;2024-01-30T11:00:22;22.13;;;6.93;;
19998;SDS011;10160;50.926;4.374;2024-01-30T11:02:49;14.10;;;6.03;;
19998;SDS011;10160;50.926;4.374;2024-01-30T11:05:28;15.63;;;5.83;;
19998;SDS011;10160;50.926;4.374;2024-01-30T11:07:54;16.57;;;6.10;;
19998;SDS011;10160;50.926;4.374;2024-01-30T11:10:20;13.13;;;4.53;;
19998;SDS011;10160;50.926;4.374;2024-01-30T11:12:45;12.07;;;4.43;;
19998;SDS011;10160;50.926;4.374;2024-01-30T11:15:12;11.30;;;4.00;;
19998;SDS011;10160;50.926;4.374;2024-01-30T11:18:00;9.77;;;3.83;;
19998;SDS011;10160;50.926;4.374;2024-01-30T11:20:27;11.10;;;3.00;;
19998;SDS011;10160;50.926;4.374;2024-01-30T11:22:57;8.70;;;1.93;;
19998;SDS011;10160;50.926;4.374;2024-01-30T11:25:25;16.03;;;1.77;;
19998;SDS011;10160;50.926;4.374;2024-01-30T11:27:51;6.80;;;1.50;;
19998;SDS011;10160;50.926;4.374;2024-01-30T11:35:26;6.67;;;1.20;;
19998;SDS011;10160;50.926;4.374;2024-01-30T11:37:52;5.63;;;0.80;;
19998;SDS011;10160;50.926;4.374;2024-01-30T11:40:19;4.43;;;0.60;;
19998;SDS011;10160;50.926;4.374;2024-01-30T11:42:44;1.93;;;0.70;;
19998;SDS011;10160;50.926;4.374;2024-01-30T11:45:12;2.97;;;1.00;;
19998;SDS011;10160;50.926;4.374;2024-01-30T11:47:37;3.73;;;0.80;;
19998;SDS011;10160;50.926;4.374;2024-01-30T11:50:04;3.50;;;1.03;;
19998;SDS011;10160;50.926;4.374;2024-01-30T11:52:34;2.43;;;0.80;;
19998;SDS011;10160;50.926;4.374;2024-01-30T11:55:00;5.73;;;1.07;;
19998;SDS011;10160;50.926;4.374;2024-01-30T11:57:29;6.63;;;1.13;;
19998;SDS011;10160;50.926;4.374;2024-01-30T11:59:57;2.07;;;0.83;;
19998;SDS011;10160;50.926;4.374;2024-01-30T12:02:23;3.50;;;0.80;;
19998;SDS011;10160;50.926;4.374;2024-01-30T12:04:48;3.50;;;0.80;;
19998;SDS011;10160;50.926;4.374;2024-01-30T12:07:14;2.13;;;0.80;;
19998;SDS011;10160;50.926;4.374;2024-01-30T12:09:52;2.33;;;0.70;;
19998;SDS011;10160;50.926;4.374;2024-01-30T12:12:19;3.73;;;0.90;;
19998;SDS011;10160;50.926;4.374;2024-01-30T12:14:46;3.77;;;0.80;;
19998;SDS011;10160;50.926;4.374;2024-01-30T12:17:22;8.83;;;0.90;;
19998;SDS011;10160;50.926;4.374;2024-01-30T12:19:48;2.60;;;0.87;;
19998;SDS011;10160;50.926;4.374;2024-01-30T12:22:27;2.93;;;0.60;;
19998;SDS011;10160;50.926;4.374;2024-01-30T12:24:53;2.27;;;0.77;;
19998;SDS011;10160;50.926;4.374;2024-01-30T12:27:18;6.67;;;0.70;;
19998;SDS011;10160;50.926;4.374;2024-01-30T12:29:57;4.07;;;0.73;;
19998;SDS011;10160;50.926;4.374;2024-01-30T12:32:23;3.03;;;0.80;;
19998;SDS011;10160;50.926;4.374;2024-01-30T12:34:49;6.00;;;0.80;;
19998;SDS011;10160;50.926;4.374;2024-01-30T12:37:15;3.13;;;0.70;;
19998;SDS011;10160;50.926;4.374;2024-01-30T12:39:46;3.97;;;0.97;;
19998;SDS011;10160;50.926;4.374;2024-01-30T12:42:15;5.40;;;1.00;;
19998;SDS011;10160;50.926;4.374;2024-01-30T12:44:47;4.23;;;0.80;;
19998;SDS011;10160;50.926;4.374;2024-01-30T12:47:16;5.43;;;1.03;;
19998;SDS011;10160;50.926;4.374;2024-01-30T12:49:44;3.07;;;0.93;;
19998;SDS011;10160;50.926;4.374;2024-01-30T12:52:20;2.43;;;0.70;;
19998;SDS011;10160;50.926;4.374;2024-01-30T12:54:47;2.90;;;0.80;;
19998;SDS011;10160;50.926;4.374;2024-01-30T12:57:13;6.30;;;0.90;;
19998;SDS011;10160;50.926;4.374;2024-01-30T12:59:39;4.80;;;1.00;;
19998;SDS011;10160;50.926;4.374;2024-01-30T13:02:08;4.03;;;0.83;;
19998;SDS011;10160;50.926;4.374;2024-01-30T13:04:34;4.30;;;1.20;;
19998;SDS011;10160;50.926;4.374;2024-01-30T13:07:00;6.40;;;0.82;;
19998;SDS011;10160;50.926;4.374;2024-01-30T13:09:34;4.28;;;0.75;;
19998;SDS011;10160;50.926;4.374;2024-01-30T13:12:00;3.92;;;1.13;;
19998;SDS011;10160;50.926;4.374;2024-01-30T13:14:26;4.20;;;0.73;;
19998;SDS011;10160;50.926;4.374;2024-01-30T13:16:52;5.20;;;0.90;;
19998;SDS011;10160;50.926;4.374;2024-01-30T13:19:18;7.63;;;1.13;;
19998;SDS011;10160;50.926;4.374;2024-01-30T13:21:43;4.77;;;1.10;;
19998;SDS011;10160;50.926;4.374;2024-01-30T13:24:12;6.77;;;1.30;;
19998;SDS011;10160;50.926;4.374;2024-01-30T13:26:38;3.23;;;0.90;;
19998;SDS011;10160;50.926;4.374;2024-01-30T13:29:06;3.90;;;1.17;;
19998;SDS011;10160;50.926;4.374;2024-01-30T13:31:32;8.40;;;1.10;;
19998;SDS011;10160;50.926;4.374;2024-01-30T13:33:58;4.40;;;0.87;;
19998;SDS011;10160;50.926;4.374;2024-01-30T13:36:23;5.20;;;1.00;;
19998;SDS011;10160;50.926;4.374;2024-01-30T13:38:49;6.20;;;1.17;;
19998;SDS011;10160;50.926;4.374;2024-01-30T13:41:15;6.90;;;1.30;;
19998;SDS011;10160;50.926;4.374;2024-01-30T13:43:41;3.77;;;1.20;;
19998;SDS011;10160;50.926;4.374;2024-01-30T13:46:08;9.53;;;1.27;;
19998;SDS011;10160;50.926;4.374;2024-01-30T13:48:43;3.00;;;1.30;;
19998;SDS011;10160;50.926;4.374;2024-01-30T13:51:08;8.20;;;1.50;;
19998;SDS011;10160;50.926;4.374;2024-01-30T13:53:35;6.80;;;1.40;;
19998;SDS011;10160;50.926;4.374;2024-01-30T13:56:01;7.77;;;1.43;;
19998;SDS011;10160;50.926;4.374;2024-01-30T13:58:30;3.83;;;1.37;;
19998;SDS011;10160;50.926;4.374;2024-01-30T14:00:58;7.47;;;1.40;;
19998;SDS011;10160;50.926;4.374;2024-01-30T14:03:24;8.17;;;1.37;;
19998;SDS011;10160;50.926;4.374;2024-01-30T14:05:49;6.17;;;1.30;;
19998;SDS011;10160;50.926;4.374;2024-01-30T14:08:15;2.90;;;1.03;;
19998;SDS011;10160;50.926;4.374;2024-01-30T14:10:41;5.20;;;1.03;;
19998;SDS011;10160;50.926;4.374;2024-01-30T14:13:13;6.20;;;1.10;;
19998;SDS011;10160;50.926;4.374;2024-01-30T14:15:44;4.07;;;1.33;;
19998;SDS011;10160;50.926;4.374;2024-01-30T14:18:16;4.33;;;1.30;;
19998;SDS011;10160;50.926;4.374;2024-01-30T14:20:42;5.97;;;1.20;;
19998;SDS011;10160;50.926;4.374;2024-01-30T14:23:10;5.60;;;1.50;;
19998;SDS011;10160;50.926;4.374;2024-01-30T14:25:36;5.50;;;1.30;;
19998;SDS011;10160;50.926;4.374;2024-01-30T14:28:02;6.40;;;1.23;;
19998;SDS011;10160;50.926;4.374;2024-01-30T14:30:44;7.23;;;1.70;;
19998;SDS011;10160;50.926;4.374;2024-01-30T14:33:12;6.17;;;1.70;;
19998;SDS011;10160;50.926;4.374;2024-01-30T14:35:40;6.30;;;1.20;;
19998;SDS011;10160;50.926;4.374;2024-01-30T14:38:09;6.97;;;1.20;;
19998;SDS011;10160;50.926;4.374;2024-01-30T14:40:34;4.83;;;1.47;;
19998;SDS011;10160;50.926;4.374;2024-01-30T14:43:00;5.77;;;2.03;;